Terminal Aerodrome Forecast
Issued by NWS Duluth, MN

Home | Current Version | Previous Version | Text Only | Print | Product List | Glossary On
Versions: 1 2 3 4 5 6 7 8 9 10 11 12 13 14 15 16
000
FTUS43 KDLH 241747
TAFDLH
TAF
KDLH 241747Z 2418/2518 16007KT P6SM VCTS BKN050CB
      TEMPO 2418/2419 3SM BR
     FM241900 17010KT P6SM FEW050 SCT140
     FM242200 19005KT P6SM VCTS SCT040CB BKN130
     FM250800 21005KT 5SM BR VCTS BKN110CB
     FM251400 23010KT P6SM VCTS BKN045CB=

USA.gov is the U.S. government's official web portal to all federal, state and local government web resources and services.